LFCRLFLW

Guest
Details From LFCR - Rodez Marcillac
To LFLW - Aurillac
Flight Number -
Tags generated
Created
Modified
Stats Distance 29 nm / 55 km
Max Altitude 1,900 ft / 579 m
Waypoints 3
Social Downloads 1
Likes 0
Share VATSIM

Download

Looking for another format? Having issues loading an existing format? Contact us
Advertisement - Login to hide

Notes

Basic altitude profile: - Ascent Rate: 2500ft/min - Ascent Speed: 250kts - Cruise Altitude: 35000ft - Cruise Speed: 420kts - Descent Rate: 1500ft/min - Descent Speed: 250kts Options: - Use NATs: yes - Use PACOTS: yes - Use low airways: yes - Use high airways: yes

Route

LFCR GAI53 LFLW

ID Type Via Altitude Latitude Longitude Leg Dist Tot Dist Heading (true) Name
O LFCR APT - 0 ft / 0 m 44.40789˚ 2.48265˚ - 0 nm - Rodez Marcillac
GAI53 FIX - 1,900 ft / 579 m 44.74361˚ 2.39333˚ 20 nm 20 nm 349° / 349° -
O LFLW APT - 0 ft / 0 m 44.89142˚ 2.42219˚ 8 nm 29 nm 8° / 8° Aurillac

Altitude Profile

Advertisement - Login to hide

LFCR

Details ICAO LFCR (RDZ)
Name Rodez Marcillac
Region France
Timezone Europe/Paris (UTC+1.0)
Stats Elevation 1,910 ft / 582 m (AMSL)
Location 44.407888° 2.482646°
Runways 1
Magnetic Variation 0.846° E

METAR

LFCR 180530Z AUTO 28009KT 3200 -DZ BR VV/// 03/03 Q1027 TEMPO 0600 FG

Decode

TAF

TAF LFCR 172300Z 1800/1824 26008KT 6000 BKN005 PROB40 TEMPO 1800/1810 0600 FG VV/// PROB30 TEMPO 1802/1804 2000 -SN OVC002 TEMPO 1804/1810 2000 -RA OVC002 TEMPO 1810/1815 2000 RA BKN005 BECMG 1815/1817 02008KT BECMG 1817/1819 CAVOK

Decode

Departure Runways

ID Width Length Bearing (true) Bearing (mag) Surface Threshold Offset Overrun Length
13 148 ft / 45 m 6,709 ft / 2,045 m 129.07° 128.22° Asphalt 0 ft / 0 m 656 ft / 200 m
31 148 ft / 45 m 6,709 ft / 2,045 m 309.08° 308.23° Asphalt 164 ft / 50 m 0 ft / 0 m

LFLW

Details ICAO LFLW (AUR)
Name Aurillac
Region France
Timezone Europe/Paris (UTC+1.0)
Stats Elevation 2,096 ft / 639 m (AMSL)
Location 44.891416° 2.422195°
Runways 1
Magnetic Variation 0.812° E

METAR

LFLW 180530Z AUTO 25002KT 2100 -RA BR OVC004 00/00 Q1026

Decode

TAF

Not found

Destination Runways

ID Width Length Bearing (true) Bearing (mag) Surface Threshold Offset Overrun Length
15 98 ft / 30 m 5,430 ft / 1,655 m 150.01° 149.20° Asphalt 0 ft / 0 m 0 ft / 0 m
33 98 ft / 30 m 5,430 ft / 1,655 m 330.01° 329.20° Asphalt 0 ft / 0 m 0 ft / 0 m

Approach Navaids

Runway Type Ident Frequency Range Bearing (true) Bearing (mag) Slope Elevation
15 Localiser AR 110.30 MHz 18 nm / 33 km 150.87° 150.06° - 2,057 ft / 627 m (AMSL)
15 Glidescope AR 110.30 MHz 10 nm / 19 km 150.01° 149.20° 3.00° 2,106 ft / 642 m (AMSL)